Everglades National Park, Florida
Current Conditions -  °F | °C
As of 8:58 AM on Sunday 25 Jan 2015 (Local Time) from KHST Reporting Station
Clear Clear  
Wind Chill: 55°   Ceiling: Unl
Heat Index: 55°   Visibility: 10mi
Dew Point: 49°   Wind: 15mph
Humidity: 81%   Direction: 340°NNW
Pressure: 30.1"   Gusts: NA
Location:  25.4848°N, 80.5094°W
Report Text: KHST 251358Z AUTO 34013KT 10SM CLR 13/09 A3010 RMK AO2 SLP196 T01250093
Loading
Personal Weather Stations






























Interactive Weather Map New forecast layout! Learn more

10-Day Weather Forecast

Advertisements
Track Severe Weather on mobile